sensor_id;sensor_type;location;lat;lon;timestamp;pressure;altitude;pressure_sealevel;temperature;humidity
56689;BME280;42565;53.342;-1.534;2022-09-19T00:01:50;99769.55;;;17.35;44.92
56689;BME280;42565;53.342;-1.534;2022-09-19T00:04:20;99770.12;;;17.50;44.81
56689;BME280;42565;53.342;-1.534;2022-09-19T00:06:49;99772.72;;;17.26;44.22
56689;BME280;42565;53.342;-1.534;2022-09-19T00:09:19;99773.17;;;17.55;44.78
56689;BME280;42565;53.342;-1.534;2022-09-19T00:11:48;99775.19;;;17.34;45.05
56689;BME280;42565;53.342;-1.534;2022-09-19T00:14:20;99769.82;;;17.24;44.95
56689;BME280;42565;53.342;-1.534;2022-09-19T00:16:47;99769.61;;;17.50;44.83
56689;BME280;42565;53.342;-1.534;2022-09-19T00:19:19;99768.02;;;17.58;44.75
56689;BME280;42565;53.342;-1.534;2022-09-19T00:21:47;99764.92;;;17.50;44.58
56689;BME280;42565;53.342;-1.534;2022-09-19T00:24:16;99764.99;;;17.28;44.29
56689;BME280;42565;53.342;-1.534;2022-09-19T00:26:45;99760.59;;;17.10;43.33
56689;BME280;42565;53.342;-1.534;2022-09-19T00:29:14;99760.66;;;17.44;43.34
56689;BME280;42565;53.342;-1.534;2022-09-19T00:31:42;99759.39;;;17.45;42.37
56689;BME280;42565;53.342;-1.534;2022-09-19T00:34:10;99761.44;;;17.43;42.44
56689;BME280;42565;53.342;-1.534;2022-09-19T00:36:38;99762.18;;;17.48;41.66
56689;BME280;42565;53.342;-1.534;2022-09-19T00:39:07;99764.90;;;17.45;41.52
56689;BME280;42565;53.342;-1.534;2022-09-19T00:41:35;99768.32;;;17.41;41.93
56689;BME280;42565;53.342;-1.534;2022-09-19T00:44:04;99770.67;;;17.11;42.09
56689;BME280;42565;53.342;-1.534;2022-09-19T00:46:34;99763.78;;;17.46;42.00
56689;BME280;42565;53.342;-1.534;2022-09-19T00:49:05;99762.97;;;17.41;42.72
56689;BME280;42565;53.342;-1.534;2022-09-19T00:51:37;99760.73;;;17.71;43.21
56689;BME280;42565;53.342;-1.534;2022-09-19T00:54:08;99763.82;;;17.79;43.05
56689;BME280;42565;53.342;-1.534;2022-09-19T00:56:38;99763.05;;;17.45;43.90
56689;BME280;42565;53.342;-1.534;2022-09-19T00:59:09;99765.05;;;17.60;43.91
56689;BME280;42565;53.342;-1.534;2022-09-19T01:01:36;99763.78;;;17.21;44.46
56689;BME280;42565;53.342;-1.534;2022-09-19T01:04:12;99767.18;;;17.35;44.88
56689;BME280;42565;53.342;-1.534;2022-09-19T01:06:47;99769.91;;;16.87;45.14
56689;BME280;42565;53.342;-1.534;2022-09-19T01:09:31;99768.79;;;17.37;45.26
56689;BME280;42565;53.342;-1.534;2022-09-19T01:12:12;99768.80;;;17.28;45.40
56689;BME280;42565;53.342;-1.534;2022-09-19T01:14:55;99765.17;;;17.21;45.64
56689;BME280;42565;53.342;-1.534;2022-09-19T01:17:30;99764.09;;;17.12;45.66
56689;BME280;42565;53.342;-1.534;2022-09-19T01:20:27;99763.56;;;17.02;45.56
56689;BME280;42565;53.342;-1.534;2022-09-19T01:23:09;99765.15;;;17.07;45.69
56689;BME280;42565;53.342;-1.534;2022-09-19T01:25:49;99770.14;;;17.13;46.03
56689;BME280;42565;53.342;-1.534;2022-09-19T01:28:19;99768.00;;;16.96;46.02
56689;BME280;42565;53.342;-1.534;2022-09-19T01:30:53;99770.29;;;17.13;45.59
56689;BME280;42565;53.342;-1.534;2022-09-19T01:33:21;99769.77;;;17.00;46.22
56689;BME280;42565;53.342;-1.534;2022-09-19T01:35:50;99769.07;;;17.13;46.30
56689;BME280;42565;53.342;-1.534;2022-09-19T01:39:05;99769.64;;;17.56;46.25
56689;BME280;42565;53.342;-1.534;2022-09-19T01:41:35;99768.35;;;17.32;45.58
56689;BME280;42565;53.342;-1.534;2022-09-19T01:44:04;99766.51;;;17.27;45.36
56689;BME280;42565;53.342;-1.534;2022-09-19T01:46:37;99765.11;;;17.18;45.83
56689;BME280;42565;53.342;-1.534;2022-09-19T01:49:17;99766.74;;;17.01;46.36
56689;BME280;42565;53.342;-1.534;2022-09-19T01:51:50;99764.69;;;16.45;47.11
56689;BME280;42565;53.342;-1.534;2022-09-19T01:54:30;99764.40;;;16.31;47.92
56689;BME280;42565;53.342;-1.534;2022-09-19T01:57:11;99759.72;;;16.25;48.27
56689;BME280;42565;53.342;-1.534;2022-09-19T01:59:47;99759.31;;;16.27;47.77
56689;BME280;42565;53.342;-1.534;2022-09-19T02:02:24;99759.86;;;16.41;47.55
56689;BME280;42565;53.342;-1.534;2022-09-19T02:05:00;99760.57;;;16.45;46.75
56689;BME280;42565;53.342;-1.534;2022-09-19T02:07:35;99763.03;;;16.96;46.29
56689;BME280;42565;53.342;-1.534;2022-09-19T02:10:08;99765.36;;;16.79;46.50
56689;BME280;42565;53.342;-1.534;2022-09-19T02:12:39;99768.89;;;16.45;46.92
56689;BME280;42565;53.342;-1.534;2022-09-19T02:15:10;99767.87;;;16.63;47.00
56689;BME280;42565;53.342;-1.534;2022-09-19T02:17:43;99766.28;;;17.19;46.56
56689;BME280;42565;53.342;-1.534;2022-09-19T02:20:15;99767.59;;;16.69;47.01
56689;BME280;42565;53.342;-1.534;2022-09-19T02:22:49;99766.68;;;16.54;46.49
56689;BME280;42565;53.342;-1.534;2022-09-19T02:25:19;99765.22;;;16.95;46.38
56689;BME280;42565;53.342;-1.534;2022-09-19T02:27:50;99763.67;;;16.66;46.52
56689;BME280;42565;53.342;-1.534;2022-09-19T02:30:20;99764.54;;;16.78;47.21
56689;BME280;42565;53.342;-1.534;2022-09-19T02:32:47;99763.42;;;16.54;47.25
56689;BME280;42565;53.342;-1.534;2022-09-19T02:35:20;99763.58;;;16.32;47.62
56689;BME280;42565;53.342;-1.534;2022-09-19T02:38:25;99765.20;;;17.10;47.20
56689;BME280;42565;53.342;-1.534;2022-09-19T02:40:59;99766.44;;;16.53;46.86
56689;BME280;42565;53.342;-1.534;2022-09-19T02:43:34;99766.21;;;16.51;46.64
56689;BME280;42565;53.342;-1.534;2022-09-19T02:46:08;99767.07;;;16.08;47.01
56689;BME280;42565;53.342;-1.534;2022-09-19T02:48:55;99765.10;;;16.07;47.32
56689;BME280;42565;53.342;-1.534;2022-09-19T02:51:26;99760.03;;;16.09;47.57
56689;BME280;42565;53.342;-1.534;2022-09-19T02:53:59;99759.11;;;16.10;47.58
56689;BME280;42565;53.342;-1.534;2022-09-19T02:56:30;99754.38;;;16.01;47.74
56689;BME280;42565;53.342;-1.534;2022-09-19T02:59:03;99752.07;;;15.65;48.12
56689;BME280;42565;53.342;-1.534;2022-09-19T03:01:32;99754.47;;;15.85;48.41
56689;BME280;42565;53.342;-1.534;2022-09-19T03:04:03;99757.27;;;15.75;48.48
56689;BME280;42565;53.342;-1.534;2022-09-19T03:06:34;99754.56;;;15.99;48.17
56689;BME280;42565;53.342;-1.534;2022-09-19T03:09:04;99755.81;;;16.18;47.89
56689;BME280;42565;53.342;-1.534;2022-09-19T03:11:34;99756.83;;;16.44;47.53
56689;BME280;42565;53.342;-1.534;2022-09-19T03:14:01;99760.15;;;16.64;47.48
56689;BME280;42565;53.342;-1.534;2022-09-19T03:16:31;99758.33;;;16.31;47.90
56689;BME280;42565;53.342;-1.534;2022-09-19T03:19:01;99758.47;;;16.36;47.48
56689;BME280;42565;53.342;-1.534;2022-09-19T03:21:28;99754.46;;;16.16;48.02
56689;BME280;42565;53.342;-1.534;2022-09-19T03:23:56;99755.20;;;16.67;47.47
56689;BME280;42565;53.342;-1.534;2022-09-19T03:26:26;99751.99;;;16.44;47.49
56689;BME280;42565;53.342;-1.534;2022-09-19T03:28:53;99753.27;;;16.26;47.38
56689;BME280;42565;53.342;-1.534;2022-09-19T03:31:21;99752.04;;;16.48;47.94
56689;BME280;42565;53.342;-1.534;2022-09-19T03:33:49;99748.44;;;16.56;47.76
56689;BME280;42565;53.342;-1.534;2022-09-19T03:36:16;99748.99;;;16.12;48.67
56689;BME280;42565;53.342;-1.534;2022-09-19T03:38:44;99753.76;;;16.18;48.54
56689;BME280;42565;53.342;-1.534;2022-09-19T03:41:11;99752.88;;;16.22;48.28
56689;BME280;42565;53.342;-1.534;2022-09-19T03:43:39;99751.40;;;16.38;48.45
56689;BME280;42565;53.342;-1.534;2022-09-19T03:46:06;99755.79;;;16.24;47.96
56689;BME280;42565;53.342;-1.534;2022-09-19T03:48:33;99755.31;;;16.21;48.33
56689;BME280;42565;53.342;-1.534;2022-09-19T03:50:59;99757.46;;;16.43;47.99
56689;BME280;42565;53.342;-1.534;2022-09-19T03:53:26;99756.77;;;16.39;47.45
56689;BME280;42565;53.342;-1.534;2022-09-19T03:55:54;99755.86;;;16.65;47.47
56689;BME280;42565;53.342;-1.534;2022-09-19T03:58:21;99755.16;;;16.60;47.23
56689;BME280;42565;53.342;-1.534;2022-09-19T04:00:49;99755.69;;;16.91;47.32
56689;BME280;42565;53.342;-1.534;2022-09-19T04:03:16;99756.24;;;16.86;47.59
56689;BME280;42565;53.342;-1.534;2022-09-19T04:05:44;99754.42;;;16.52;48.10
56689;BME280;42565;53.342;-1.534;2022-09-19T04:09:02;99752.07;;;16.96;47.49
56689;BME280;42565;53.342;-1.534;2022-09-19T04:11:31;99753.19;;;16.67;47.36
56689;BME280;42565;53.342;-1.534;2022-09-19T04:13:58;99756.26;;;17.02;47.93
56689;BME280;42565;53.342;-1.534;2022-09-19T04:16:27;99753.23;;;16.77;47.98
56689;BME280;42565;53.342;-1.534;2022-09-19T04:18:54;99755.25;;;16.61;47.73
56689;BME280;42565;53.342;-1.534;2022-09-19T04:21:22;99759.66;;;16.41;48.44
56689;BME280;42565;53.342;-1.534;2022-09-19T04:23:49;99759.95;;;16.56;48.36
56689;BME280;42565;53.342;-1.534;2022-09-19T04:26:17;99756.03;;;16.66;48.44
56689;BME280;42565;53.342;-1.534;2022-09-19T04:28:45;99755.20;;;16.71;48.23
56689;BME280;42565;53.342;-1.534;2022-09-19T04:31:13;99752.22;;;16.91;47.78
56689;BME280;42565;53.342;-1.534;2022-09-19T04:33:40;99752.51;;;16.34;47.97
56689;BME280;42565;53.342;-1.534;2022-09-19T04:36:07;99751.33;;;16.22;48.78
56689;BME280;42565;53.342;-1.534;2022-09-19T04:38:36;99755.53;;;16.24;48.63
56689;BME280;42565;53.342;-1.534;2022-09-19T04:41:04;99753.91;;;15.76;48.86
56689;BME280;42565;53.342;-1.534;2022-09-19T04:43:32;99753.04;;;16.11;49.09
56689;BME280;42565;53.342;-1.534;2022-09-19T04:46:00;99759.49;;;16.26;49.20
56689;BME280;42565;53.342;-1.534;2022-09-19T04:48:27;99760.52;;;16.09;48.58
56689;BME280;42565;53.342;-1.534;2022-09-19T04:50:55;99758.14;;;16.05;48.49
56689;BME280;42565;53.342;-1.534;2022-09-19T04:53:24;99760.85;;;16.29;48.06
56689;BME280;42565;53.342;-1.534;2022-09-19T04:55:52;99762.95;;;16.27;48.40
56689;BME280;42565;53.342;-1.534;2022-09-19T04:58:21;99759.74;;;16.40;48.35
56689;BME280;42565;53.342;-1.534;2022-09-19T05:00:50;99762.92;;;16.56;47.49
56689;BME280;42565;53.342;-1.534;2022-09-19T05:03:28;99758.16;;;16.48;48.10
56689;BME280;42565;53.342;-1.534;2022-09-19T05:05:55;99755.15;;;16.28;48.04
56689;BME280;42565;53.342;-1.534;2022-09-19T05:08:24;99758.02;;;16.05;47.91
56689;BME280;42565;53.342;-1.534;2022-09-19T05:10:53;99751.65;;;16.13;48.19
56689;BME280;42565;53.342;-1.534;2022-09-19T05:13:20;99752.95;;;16.53;47.75
56689;BME280;42565;53.342;-1.534;2022-09-19T05:15:48;99755.00;;;16.15;47.72
56689;BME280;42565;53.342;-1.534;2022-09-19T05:18:15;99753.50;;;16.29;48.11
56689;BME280;42565;53.342;-1.534;2022-09-19T05:20:41;99753.93;;;16.48;48.08
56689;BME280;42565;53.342;-1.534;2022-09-19T05:23:08;99755.90;;;16.30;48.22
56689;BME280;42565;53.342;-1.534;2022-09-19T05:25:37;99756.49;;;15.97;48.70
56689;BME280;42565;53.342;-1.534;2022-09-19T05:28:05;99752.91;;;16.07;48.41
56689;BME280;42565;53.342;-1.534;2022-09-19T05:30:33;99750.57;;;15.94;48.69
56689;BME280;42565;53.342;-1.534;2022-09-19T05:33:00;99751.06;;;16.47;48.21
56689;BME280;42565;53.342;-1.534;2022-09-19T05:35:28;99752.11;;;16.13;48.48
56689;BME280;42565;53.342;-1.534;2022-09-19T05:37:55;99758.91;;;16.38;48.58
56689;BME280;42565;53.342;-1.534;2022-09-19T05:40:23;99761.79;;;16.48;48.50
56689;BME280;42565;53.342;-1.534;2022-09-19T05:42:51;99763.05;;;16.01;49.15
56689;BME280;42565;53.342;-1.534;2022-09-19T05:45:19;99762.64;;;16.16;48.72
56689;BME280;42565;53.342;-1.534;2022-09-19T05:47:46;99765.81;;;16.01;49.33
56689;BME280;42565;53.342;-1.534;2022-09-19T05:50:14;99770.38;;;16.00;49.13
56689;BME280;42565;53.342;-1.534;2022-09-19T05:52:42;99772.01;;;16.64;48.24
56689;BME280;42565;53.342;-1.534;2022-09-19T05:55:09;99771.16;;;15.90;48.85
56689;BME280;42565;53.342;-1.534;2022-09-19T05:57:36;99772.45;;;16.10;48.30
56689;BME280;42565;53.342;-1.534;2022-09-19T06:00:05;99776.59;;;16.01;48.56
56689;BME280;42565;53.342;-1.534;2022-09-19T06:02:32;99776.96;;;15.99;48.71
56689;BME280;42565;53.342;-1.534;2022-09-19T06:04:59;99781.59;;;15.20;49.85
56689;BME280;42565;53.342;-1.534;2022-09-19T06:07:37;99779.30;;;15.44;49.59
56689;BME280;42565;53.342;-1.534;2022-09-19T06:10:05;99783.03;;;15.13;50.45
56689;BME280;42565;53.342;-1.534;2022-09-19T06:12:33;99783.52;;;15.14;50.56
56689;BME280;42565;53.342;-1.534;2022-09-19T06:14:59;99785.69;;;15.67;50.33
56689;BME280;42565;53.342;-1.534;2022-09-19T06:17:27;99787.19;;;15.60;49.86
56689;BME280;42565;53.342;-1.534;2022-09-19T06:19:54;99788.54;;;15.67;49.99
56689;BME280;42565;53.342;-1.534;2022-09-19T06:22:20;99787.42;;;15.65;50.07
56689;BME280;42565;53.342;-1.534;2022-09-19T06:24:47;99790.99;;;15.20;50.22
56689;BME280;42565;53.342;-1.534;2022-09-19T06:27:14;99795.91;;;15.22;50.77
56689;BME280;42565;53.342;-1.534;2022-09-19T06:29:41;99793.50;;;15.79;49.91
56689;BME280;42565;53.342;-1.534;2022-09-19T06:32:09;99794.55;;;15.37;49.97
56689;BME280;42565;53.342;-1.534;2022-09-19T06:34:36;99795.48;;;16.04;49.52
56689;BME280;42565;53.342;-1.534;2022-09-19T06:37:03;99794.15;;;15.79;49.40
56689;BME280;42565;53.342;-1.534;2022-09-19T06:39:31;99795.25;;;15.81;49.84
56689;BME280;42565;53.342;-1.534;2022-09-19T06:41:57;99794.82;;;16.12;49.84
56689;BME280;42565;53.342;-1.534;2022-09-19T06:44:24;99795.63;;;16.13;49.29
56689;BME280;42565;53.342;-1.534;2022-09-19T06:46:51;99796.80;;;16.01;49.03
56689;BME280;42565;53.342;-1.534;2022-09-19T06:49:18;99798.00;;;15.60;49.29
56689;BME280;42565;53.342;-1.534;2022-09-19T06:51:45;99802.42;;;16.08;48.67
56689;BME280;42565;53.342;-1.534;2022-09-19T06:54:13;99801.88;;;16.22;48.01
56689;BME280;42565;53.342;-1.534;2022-09-19T06:56:40;99806.07;;;15.98;48.74
56689;BME280;42565;53.342;-1.534;2022-09-19T06:59:07;99805.66;;;16.27;49.09
56689;BME280;42565;53.342;-1.534;2022-09-19T07:01:35;99806.66;;;15.89;49.51
56689;BME280;42565;53.342;-1.534;2022-09-19T07:04:02;99808.70;;;15.69;49.51
56689;BME280;42565;53.342;-1.534;2022-09-19T07:06:31;99815.19;;;16.21;47.95
56689;BME280;42565;53.342;-1.534;2022-09-19T07:08:58;99813.91;;;16.33;47.67
56689;BME280;42565;53.342;-1.534;2022-09-19T07:11:25;99817.76;;;16.65;49.12
56689;BME280;42565;53.342;-1.534;2022-09-19T07:13:52;99820.73;;;16.41;49.80
56689;BME280;42565;53.342;-1.534;2022-09-19T07:16:18;99822.19;;;16.01;50.97
56689;BME280;42565;53.342;-1.534;2022-09-19T07:18:45;99823.35;;;16.18;50.87
56689;BME280;42565;53.342;-1.534;2022-09-19T07:21:12;99826.28;;;15.97;52.31
56689;BME280;42565;53.342;-1.534;2022-09-19T07:23:38;99829.86;;;15.79;52.50
56689;BME280;42565;53.342;-1.534;2022-09-19T07:26:06;99828.99;;;16.22;52.51
56689;BME280;42565;53.342;-1.534;2022-09-19T07:28:34;99829.10;;;16.41;51.59
56689;BME280;42565;53.342;-1.534;2022-09-19T07:31:01;99828.20;;;16.17;52.35
56689;BME280;42565;53.342;-1.534;2022-09-19T07:33:29;99836.17;;;16.06;51.73
56689;BME280;42565;53.342;-1.534;2022-09-19T07:35:56;99837.16;;;16.67;50.99
56689;BME280;42565;53.342;-1.534;2022-09-19T07:38:24;99834.84;;;16.64;50.66
56689;BME280;42565;53.342;-1.534;2022-09-19T07:40:53;99837.50;;;16.56;50.40
56689;BME280;42565;53.342;-1.534;2022-09-19T07:43:21;99836.56;;;16.99;49.35
56689;BME280;42565;53.342;-1.534;2022-09-19T07:45:50;99838.49;;;16.57;50.13
56689;BME280;42565;53.342;-1.534;2022-09-19T07:48:18;99839.06;;;16.85;50.64
56689;BME280;42565;53.342;-1.534;2022-09-19T07:50:46;99837.70;;;16.13;51.39
56689;BME280;42565;53.342;-1.534;2022-09-19T07:53:14;99835.87;;;15.89;52.26
56689;BME280;42565;53.342;-1.534;2022-09-19T07:55:42;99836.27;;;16.04;52.84
56689;BME280;42565;53.342;-1.534;2022-09-19T07:58:11;99839.38;;;15.48;53.39
56689;BME280;42565;53.342;-1.534;2022-09-19T08:00:39;99839.91;;;15.62;52.68
56689;BME280;42565;53.342;-1.534;2022-09-19T08:03:09;99842.60;;;16.12;52.65
56689;BME280;42565;53.342;-1.534;2022-09-19T08:06:02;99851.23;;;16.46;51.43
56689;BME280;42565;53.342;-1.534;2022-09-19T08:08:29;99853.01;;;16.41;50.96
56689;BME280;42565;53.342;-1.534;2022-09-19T08:10:58;99852.46;;;16.12;51.74
56689;BME280;42565;53.342;-1.534;2022-09-19T08:13:25;99858.61;;;15.95;52.85
56689;BME280;42565;53.342;-1.534;2022-09-19T08:15:52;99863.15;;;16.31;52.66
56689;BME280;42565;53.342;-1.534;2022-09-19T08:18:20;99865.98;;;16.37;52.34
56689;BME280;42565;53.342;-1.534;2022-09-19T08:20:47;99866.92;;;16.51;51.52
56689;BME280;42565;53.342;-1.534;2022-09-19T08:23:15;99867.03;;;16.89;51.86
56689;BME280;42565;53.342;-1.534;2022-09-19T08:25:44;99855.19;;;16.02;52.92
56689;BME280;42565;53.342;-1.534;2022-09-19T08:28:12;99861.02;;;15.61;53.39
56689;BME280;42565;53.342;-1.534;2022-09-19T08:30:39;99868.29;;;14.99;55.75
56689;BME280;42565;53.342;-1.534;2022-09-19T08:33:07;99872.57;;;15.04;55.81
56689;BME280;42565;53.342;-1.534;2022-09-19T08:35:34;99876.82;;;15.34;56.60
56689;BME280;42565;53.342;-1.534;2022-09-19T08:38:01;99873.79;;;15.72;54.51
56689;BME280;42565;53.342;-1.534;2022-09-19T08:40:34;99876.38;;;15.62;53.98
56689;BME280;42565;53.342;-1.534;2022-09-19T08:43:08;99875.55;;;15.95;53.19
56689;BME280;42565;53.342;-1.534;2022-09-19T08:45:47;99876.93;;;16.26;52.40
56689;BME280;42565;53.342;-1.534;2022-09-19T08:48:27;99875.71;;;16.53;52.36
56689;BME280;42565;53.342;-1.534;2022-09-19T08:50:58;99875.61;;;16.17;51.99
56689;BME280;42565;53.342;-1.534;2022-09-19T08:53:31;99874.82;;;15.83;53.58
56689;BME280;42565;53.342;-1.534;2022-09-19T08:56:00;99879.55;;;16.28;53.38
56689;BME280;42565;53.342;-1.534;2022-09-19T08:58:30;99879.93;;;16.58;51.98
56689;BME280;42565;53.342;-1.534;2022-09-19T09:01:00;99881.47;;;16.50;50.72
56689;BME280;42565;53.342;-1.534;2022-09-19T09:03:37;99877.07;;;15.94;53.33
56689;BME280;42565;53.342;-1.534;2022-09-19T09:06:17;99880.78;;;16.20;53.39
56689;BME280;42565;53.342;-1.534;2022-09-19T09:08:55;99884.67;;;16.38;52.76
56689;BME280;42565;53.342;-1.534;2022-09-19T09:11:36;99886.72;;;16.04;52.47
56689;BME280;42565;53.342;-1.534;2022-09-19T09:14:17;99888.94;;;16.45;51.78
56689;BME280;42565;53.342;-1.534;2022-09-19T09:16:57;99889.11;;;15.89;54.65
56689;BME280;42565;53.342;-1.534;2022-09-19T09:20:15;99886.22;;;16.02;54.19
56689;BME280;42565;53.342;-1.534;2022-09-19T09:22:47;99889.32;;;16.37;52.80
56689;BME280;42565;53.342;-1.534;2022-09-19T09:25:21;99887.98;;;16.34;51.89
56689;BME280;42565;53.342;-1.534;2022-09-19T09:27:54;99888.74;;;16.33;52.49
56689;BME280;42565;53.342;-1.534;2022-09-19T09:30:22;99892.16;;;16.26;52.52
56689;BME280;42565;53.342;-1.534;2022-09-19T09:32:53;99892.22;;;16.30;53.32
56689;BME280;42565;53.342;-1.534;2022-09-19T09:35:27;99895.07;;;16.15;53.79
56689;BME280;42565;53.342;-1.534;2022-09-19T09:38:02;99896.21;;;15.52;53.64
56689;BME280;42565;53.342;-1.534;2022-09-19T09:40:40;99897.27;;;16.36;52.41
56689;BME280;42565;53.342;-1.534;2022-09-19T09:43:08;99897.11;;;16.35;53.22
56689;BME280;42565;53.342;-1.534;2022-09-19T09:45:40;99898.86;;;15.87;53.24
56689;BME280;42565;53.342;-1.534;2022-09-19T09:48:11;99900.68;;;15.36;55.23
56689;BME280;42565;53.342;-1.534;2022-09-19T09:50:50;99899.80;;;14.88;56.17
56689;BME280;42565;53.342;-1.534;2022-09-19T09:53:29;99899.91;;;14.98;56.39
56689;BME280;42565;53.342;-1.534;2022-09-19T09:56:05;99901.50;;;15.47;55.76
56689;BME280;42565;53.342;-1.534;2022-09-19T09:58:41;99897.28;;;15.18;58.11
56689;BME280;42565;53.342;-1.534;2022-09-19T10:01:20;99900.63;;;15.43;55.82
56689;BME280;42565;53.342;-1.534;2022-09-19T10:03:52;99896.22;;;15.89;55.19
56689;BME280;42565;53.342;-1.534;2022-09-19T10:06:28;99899.27;;;16.13;54.60
56689;BME280;42565;53.342;-1.534;2022-09-19T10:09:01;99896.80;;;16.19;55.05
56689;BME280;42565;53.342;-1.534;2022-09-19T10:11:36;99898.02;;;15.99;56.21
56689;BME280;42565;53.342;-1.534;2022-09-19T10:14:07;99899.56;;;15.98;55.30
56689;BME280;42565;53.342;-1.534;2022-09-19T10:16:37;99899.00;;;15.67;56.68
56689;BME280;42565;53.342;-1.534;2022-09-19T10:19:14;99899.97;;;15.55;56.96
56689;BME280;42565;53.342;-1.534;2022-09-19T10:21:43;99903.38;;;15.27;57.29
56689;BME280;42565;53.342;-1.534;2022-09-19T10:24:40;99902.13;;;15.41;57.81
56689;BME280;42565;53.342;-1.534;2022-09-19T10:27:10;99901.92;;;15.40;56.43
56689;BME280;42565;53.342;-1.534;2022-09-19T10:29:48;99902.26;;;15.12;57.19
56689;BME280;42565;53.342;-1.534;2022-09-19T10:32:16;99900.97;;;15.94;56.26
56689;BME280;42565;53.342;-1.534;2022-09-19T10:34:43;99900.85;;;15.92;56.06
56689;BME280;42565;53.342;-1.534;2022-09-19T10:37:12;99902.91;;;15.97;55.87
56689;BME280;42565;53.342;-1.534;2022-09-19T10:39:41;99899.39;;;15.97;56.12
56689;BME280;42565;53.342;-1.534;2022-09-19T10:42:20;99901.63;;;15.18;57.09
56689;BME280;42565;53.342;-1.534;2022-09-19T10:44:52;99899.93;;;14.86;59.19
56689;BME280;42565;53.342;-1.534;2022-09-19T10:47:19;99899.98;;;14.33;60.90
56689;BME280;42565;53.342;-1.534;2022-09-19T10:49:47;99896.89;;;14.75;60.45
56689;BME280;42565;53.342;-1.534;2022-09-19T10:52:24;99897.63;;;15.06;59.67
56689;BME280;42565;53.342;-1.534;2022-09-19T10:54:52;99898.76;;;14.99;59.01
56689;BME280;42565;53.342;-1.534;2022-09-19T10:57:38;99900.21;;;15.19;59.82
56689;BME280;42565;53.342;-1.534;2022-09-19T11:00:22;99898.14;;;15.60;58.90
56689;BME280;42565;53.342;-1.534;2022-09-19T11:02:59;99901.17;;;15.11;58.77
56689;BME280;42565;53.342;-1.534;2022-09-19T11:05:30;99905.28;;;14.67;59.41
56689;BME280;42565;53.342;-1.534;2022-09-19T11:07:58;99907.08;;;15.23;58.55
56689;BME280;42565;53.342;-1.534;2022-09-19T11:10:32;99904.97;;;15.27;58.65
56689;BME280;42565;53.342;-1.534;2022-09-19T11:13:05;99904.99;;;14.67;60.26
56689;BME280;42565;53.342;-1.534;2022-09-19T11:15:34;99904.39;;;14.71;60.57
56689;BME280;42565;53.342;-1.534;2022-09-19T11:18:10;99899.55;;;14.70;61.23
56689;BME280;42565;53.342;-1.534;2022-09-19T11:20:46;99905.96;;;13.80;63.36
56689;BME280;42565;53.342;-1.534;2022-09-19T11:23:29;99905.40;;;14.15;62.60
56689;BME280;42565;53.342;-1.534;2022-09-19T11:26:08;99901.99;;;14.70;60.63
56689;BME280;42565;53.342;-1.534;2022-09-19T11:28:47;99906.15;;;15.04;60.06
56689;BME280;42565;53.342;-1.534;2022-09-19T11:31:26;99904.62;;;15.52;58.90
56689;BME280;42565;53.342;-1.534;2022-09-19T11:34:00;99907.74;;;15.43;58.03
56689;BME280;42565;53.342;-1.534;2022-09-19T11:36:38;99908.66;;;15.46;57.91
56689;BME280;42565;53.342;-1.534;2022-09-19T11:39:15;99910.96;;;14.97;58.27
56689;BME280;42565;53.342;-1.534;2022-09-19T11:42:16;99910.22;;;15.15;58.88
56689;BME280;42565;53.342;-1.534;2022-09-19T11:44:57;99908.45;;;14.44;59.44
56689;BME280;42565;53.342;-1.534;2022-09-19T11:47:57;99910.31;;;14.62;59.46
56689;BME280;42565;53.342;-1.534;2022-09-19T11:50:36;99910.74;;;15.26;57.41
56689;BME280;42565;53.342;-1.534;2022-09-19T11:53:19;99910.26;;;15.46;56.97
56689;BME280;42565;53.342;-1.534;2022-09-19T11:55:55;99911.84;;;15.42;57.53
56689;BME280;42565;53.342;-1.534;2022-09-19T11:58:30;99910.67;;;15.98;56.22
56689;BME280;42565;53.342;-1.534;2022-09-19T12:03:53;99912.95;;;16.27;53.99
56689;BME280;42565;53.342;-1.534;2022-09-19T12:06:35;99914.84;;;16.26;53.24
56689;BME280;42565;53.342;-1.534;2022-09-19T12:09:12;99911.53;;;16.21;54.10
56689;BME280;42565;53.342;-1.534;2022-09-19T12:11:44;99911.28;;;16.09;55.90
56689;BME280;42565;53.342;-1.534;2022-09-19T12:14:19;99913.96;;;16.45;54.33
56689;BME280;42565;53.342;-1.534;2022-09-19T12:16:51;99915.89;;;16.84;52.88
56689;BME280;42565;53.342;-1.534;2022-09-19T12:19:22;99915.76;;;16.81;52.48
56689;BME280;42565;53.342;-1.534;2022-09-19T12:21:54;99919.16;;;16.64;52.86
56689;BME280;42565;53.342;-1.534;2022-09-19T12:24:27;99914.39;;;16.63;52.40
56689;BME280;42565;53.342;-1.534;2022-09-19T12:27:00;99909.57;;;16.46;54.63
56689;BME280;42565;53.342;-1.534;2022-09-19T12:29:31;99903.07;;;16.03;55.62
56689;BME280;42565;53.342;-1.534;2022-09-19T12:32:04;99899.55;;;15.98;55.14
56689;BME280;42565;53.342;-1.534;2022-09-19T12:34:38;99906.59;;;16.54;54.60
56689;BME280;42565;53.342;-1.534;2022-09-19T12:37:13;99906.32;;;16.93;53.48
56689;BME280;42565;53.342;-1.534;2022-09-19T12:39:46;99906.72;;;16.20;54.91
56689;BME280;42565;53.342;-1.534;2022-09-19T12:42:20;99909.56;;;16.27;55.29
56689;BME280;42565;53.342;-1.534;2022-09-19T12:44:55;99909.51;;;16.72;54.09
56689;BME280;42565;53.342;-1.534;2022-09-19T12:47:39;99910.83;;;16.90;51.82
56689;BME280;42565;53.342;-1.534;2022-09-19T12:50:19;99904.89;;;17.08;52.03
56689;BME280;42565;53.342;-1.534;2022-09-19T12:52:56;99905.32;;;17.00;52.89
56689;BME280;42565;53.342;-1.534;2022-09-19T12:56:03;99899.00;;;17.69;51.25
56689;BME280;42565;53.342;-1.534;2022-09-19T12:58:36;99897.88;;;17.90;49.08
56689;BME280;42565;53.342;-1.534;2022-09-19T13:01:14;99896.57;;;18.36;48.32
56689;BME280;42565;53.342;-1.534;2022-09-19T13:03:49;99896.11;;;18.36;47.64
56689;BME280;42565;53.342;-1.534;2022-09-19T13:06:22;99899.53;;;19.02;47.03
56689;BME280;42565;53.342;-1.534;2022-09-19T13:08:54;99896.91;;;18.52;46.47
56689;BME280;42565;53.342;-1.534;2022-09-19T13:11:29;99890.63;;;18.47;46.90
56689;BME280;42565;53.342;-1.534;2022-09-19T13:14:00;99894.55;;;18.67;47.91
56689;BME280;42565;53.342;-1.534;2022-09-19T13:16:31;99893.31;;;18.59;48.39
56689;BME280;42565;53.342;-1.534;2022-09-19T13:19:00;99893.15;;;18.65;47.81